Time;durP1;ratioP1;P1;durP2;ratioP2;P2;SDS_P1;SDS_P2;PMS_P1;PMS_P2;Temp;Humidity;BMP_temperature;BMP_pressure;BME280_temperature;BME280_humidity;BME280_pressure;Samples;Min_cycle;Max_cycle;Signal;HPM_P1;HPM_P2
2022/09/15 00:00:43;;;;;;;6.88;2.90;;;;;;;19.39;73.07;94372.81;5040115;22;20312;-61
2022/09/15 00:03:09;;;;;;;2.88;2.17;;;;;;;19.30;74.79;94336.03;5032944;28;20592;-61
2022/09/15 00:05:34;;;;;;;4.53;2.42;;;;;;;19.27;75.81;94324.31;5032785;28;20338;-61
2022/09/15 00:08:00;;;;;;;5.68;2.70;;;;;;;19.32;74.37;94357.28;5032918;28;20174;-61
2022/09/15 00:10:27;;;;;;;3.50;2.47;;;;;;;19.24;74.72;94339.38;5033028;28;20691;-60
2022/09/15 00:12:54;;;;;;;4.13;2.40;;;;;;;19.32;74.06;94357.28;5032692;28;20240;-60
2022/09/15 00:15:21;;;;;;;3.65;2.78;;;;;;;19.24;74.61;94336.81;5014843;28;20756;-61
2022/09/15 00:17:49;;;;;;;3.22;2.55;;;;;;;19.23;74.66;94343.75;5032663;28;20194;-65
2022/09/15 00:20:15;;;;;;;7.93;2.83;;;;;;;19.20;74.64;94338.19;5032737;28;20214;-62
2022/09/15 00:22:41;;;;;;;4.60;2.60;;;;;;;19.19;75.52;94328.84;5032738;28;20194;-63
2022/09/15 00:25:06;;;;;;;8.10;2.60;;;;;;;19.18;74.76;94340.16;5032766;28;20220;-60
2022/09/15 00:27:32;;;;;;;5.25;2.55;;;;;;;19.21;74.36;94352.63;5032566;28;20182;-59
2022/09/15 00:29:58;;;;;;;2.80;2.42;;;;;;;19.32;74.14;94364.22;5032456;28;20760;-60
2022/09/15 00:32:24;;;;;;;6.03;2.20;;;;;;;19.40;73.77;94374.41;5032353;28;20695;-59
2022/09/15 00:34:50;;;;;;;3.15;2.28;;;;;;;19.37;73.26;94378.16;5032249;28;20305;-62
2022/09/15 00:37:16;;;;;;;4.30;2.50;;;;;;;19.38;72.45;94387.47;5031791;28;20179;-60
2022/09/15 00:39:41;;;;;;;5.55;2.30;;;;;;;19.39;72.73;94377.97;5032588;28;20225;-61
2022/09/15 00:42:14;;;;;;;3.33;2.28;;;;;;;19.38;73.37;94360.91;5032432;28;20640;-61
2022/09/15 00:44:50;;;;;;;5.30;2.47;;;;;;;19.42;72.48;94390.47;5032648;28;20220;-60
2022/09/15 00:47:19;;;;;;;6.50;2.63;;;;;;;19.21;73.21;94371.47;5032339;28;20609;-61
2022/09/15 00:49:46;;;;;;;3.50;2.38;;;;;;;19.30;73.54;94361.81;5014428;28;20257;-61
2022/09/15 00:52:47;;;;;;;5.55;2.75;;;;;;;19.15;74.26;94361.13;5032308;28;20194;-60
2022/09/15 00:55:25;;;;;;;3.33;2.63;;;;;;;19.15;73.81;94367.09;5014326;28;20230;-62
2022/09/15 00:57:59;;;;;;;10.05;3.05;;;;;;;19.19;74.38;94357.19;5014209;28;20194;-63
2022/09/15 01:00:27;;;;;;;9.38;3.10;;;;;;;19.13;74.05;94363.91;5032018;28;20209;-61
2022/09/15 01:02:54;;;;;;;4.88;2.88;;;;;;;19.14;74.48;94360.34;5032028;28;20193;-62
2022/09/15 01:05:23;;;;;;;6.70;2.97;;;;;;;19.31;73.16;94385.81;5031664;28;20220;-60
2022/09/15 01:08:00;;;;;;;5.05;3.20;;;;;;;19.29;72.63;94386.81;5031944;28;20182;-62
2022/09/15 01:10:31;;;;;;;5.00;3.20;;;;;;;19.12;73.65;94364.09;5014288;28;20217;-62
2022/09/15 01:13:01;;;;;;;5.55;2.53;;;;;;;19.16;72.47;94391.09;5032007;28;20182;-61
2022/09/15 01:15:53;;;;;;;4.13;2.42;;;;;;;19.06;72.94;94372.59;5031614;28;20206;-60
2022/09/15 01:18:28;;;;;;;6.00;2.95;;;;;;;19.08;73.04;94376.56;5007139;28;20206;-61
2022/09/15 01:21:02;;;;;;;3.83;2.55;;;;;;;18.99;74.75;94345.97;5031845;28;20193;-62
2022/09/15 01:23:57;;;;;;;5.80;2.72;;;;;;;18.91;74.08;94348.69;5031902;28;20255;-62
2022/09/15 01:26:35;;;;;;;3.53;2.55;;;;;;;18.94;73.31;94363.78;5031538;28;20251;-61
2022/09/15 01:29:19;;;;;;;6.63;2.85;;;;;;;18.91;73.00;94372.66;5013883;28;20321;-61
2022/09/15 01:35:09;;;;;;;7.60;2.75;;;;;;;18.89;74.53;94335.19;5031409;28;20225;-62
2022/09/15 01:37:39;;;;;;;4.75;2.35;;;;;;;18.84;72.97;94360.72;5031578;28;20194;-60
2022/09/15 01:40:05;;;;;;;5.95;2.60;;;;;;;18.83;72.88;94362.50;5013557;28;20294;-62
2022/09/15 01:42:32;;;;;;;6.00;2.72;;;;;;;19.01;71.62;94393.75;5031342;28;20198;-62
2022/09/15 01:45:05;;;;;;;3.45;2.60;;;;;;;19.13;71.34;94401.75;5013603;28;20715;-61
2022/09/15 01:47:33;;;;;;;9.68;3.00;;;;;;;18.90;72.10;94373.66;5031274;28;20202;-62
2022/09/15 01:50:06;;;;;;;5.32;2.67;;;;;;;18.88;72.92;94377.41;5031437;28;20217;-61
2022/09/15 01:52:32;;;;;;;2.90;2.45;;;;;;;19.00;72.97;94373.34;5031369;28;20212;-61
2022/09/15 01:55:08;;;;;;;6.78;2.80;;;;;;;19.03;71.72;94396.94;5031356;28;20596;-62
2022/09/15 01:57:34;;;;;;;5.25;2.60;;;;;;;18.98;74.40;94339.22;5013584;28;20196;-62
2022/09/15 02:00:00;;;;;;;8.38;2.95;;;;;;;19.09;72.92;94374.75;5020789;22;20229;-60
2022/09/15 02:02:28;;;;;;;8.43;2.72;;;;;;;19.00;71.82;94389.59;5031162;28;20255;-62
2022/09/15 02:05:07;;;;;;;5.18;2.92;;;;;;;18.95;73.20;94365.34;5030962;28;20301;-59
2022/09/15 02:07:43;;;;;;;5.00;2.58;;;;;;;18.91;73.04;94364.94;5031112;28;20201;-61
2022/09/15 02:10:21;;;;;;;4.97;2.80;;;;;;;18.85;72.97;94359.72;5031376;28;20206;-60
2022/09/15 02:13:15;;;;;;;3.65;2.75;;;;;;;18.87;72.21;94376.59;5031145;28;20198;-61
2022/09/15 02:15:49;;;;;;;9.30;3.47;;;;;;;18.82;73.24;94349.81;5030365;28;20222;-61
2022/09/15 02:18:24;;;;;;;8.38;3.00;;;;;;;18.79;72.97;94355.31;5013283;28;20198;-62
2022/09/15 02:20:57;;;;;;;4.93;3.35;;;;;;;18.75;74.07;94329.16;5030937;28;20212;-62
2022/09/15 02:23:27;;;;;;;3.22;2.33;;;;;;;18.86;75.36;94300.31;5013067;28;20194;-63
2022/09/15 02:25:58;;;;;;;7.45;2.83;;;;;;;18.85;73.67;94339.13;5013308;28;20636;-60
2022/09/15 02:28:30;;;;;;;5.85;2.45;;;;;;;18.78;74.42;94313.34;5030941;28;20622;-62
2022/09/15 02:30:58;;;;;;;4.68;2.40;;;;;;;18.82;73.49;94340.31;5030962;28;20692;-62
2022/09/15 02:33:31;;;;;;;6.38;2.65;;;;;;;18.76;73.05;94345.41;5012897;28;20210;-62
2022/09/15 02:35:58;;;;;;;4.63;2.45;;;;;;;18.75;72.93;94341.22;5030565;28;20327;-62
2022/09/15 02:38:27;;;;;;;4.60;2.55;;;;;;;18.82;73.20;94339.50;5030656;28;20312;-63
2022/09/15 02:40:52;;;;;;;6.28;2.60;;;;;;;18.84;74.25;94334.97;5030650;28;20232;-60
2022/09/15 02:43:18;;;;;;;4.18;2.45;;;;;;;18.85;74.15;94321.09;5030638;28;20198;-61
2022/09/15 02:45:44;;;;;;;4.90;2.88;;;;;;;18.77;74.80;94303.22;5030779;28;20186;-62
2022/09/15 02:48:10;;;;;;;6.72;2.67;;;;;;;18.81;73.69;94336.13;4997009;28;20652;-62
2022/09/15 02:50:37;;;;;;;4.82;2.47;;;;;;;18.74;73.32;94345.59;5030301;28;20673;-61
2022/09/15 02:53:03;;;;;;;3.80;2.45;;;;;;;18.74;73.32;94349.97;5030491;28;20244;-62
2022/09/15 02:55:28;;;;;;;4.03;2.65;;;;;;;18.81;73.49;94341.28;5012643;28;20218;-62
2022/09/15 02:57:57;;;;;;;5.63;2.85;;;;;;;18.79;73.72;94332.94;5012770;28;20186;-61
2022/09/15 03:00:23;;;;;;;7.45;3.03;;;;;;;18.73;74.62;94315.66;5030526;28;20252;-63
2022/09/15 03:02:50;;;;;;;8.43;3.47;;;;;;;18.58;74.16;94327.06;5030446;28;20191;-61
2022/09/15 03:05:19;;;;;;;5.97;2.88;;;;;;;18.65;74.67;94322.72;5030304;28;20221;-61
2022/09/15 03:07:44;;;;;;;7.82;2.78;;;;;;;18.70;73.58;94344.38;5030416;28;20190;-60
2022/09/15 03:10:12;;;;;;;4.80;2.45;;;;;;;18.74;73.42;94339.66;5030346;28;20214;-60
2022/09/15 03:12:45;;;;;;;8.05;2.90;;;;;;;18.69;73.99;94335.06;5030341;28;20644;-61
2022/09/15 03:15:13;;;;;;;5.88;2.58;;;;;;;18.65;73.39;94349.28;5030201;28;20245;-60
2022/09/15 03:17:41;;;;;;;3.83;2.40;;;;;;;18.61;73.59;94352.41;5030241;28;20244;-61
2022/09/15 03:20:08;;;;;;;4.57;2.35;;;;;;;18.70;74.14;94346.16;5030533;28;20253;-63
2022/09/15 03:22:35;;;;;;;7.45;2.78;;;;;;;18.64;74.31;94347.72;5030044;28;20194;-63
2022/09/15 03:25:01;;;;;;;6.05;2.90;;;;;;;18.62;74.59;94348.88;5012462;28;20288;-62
2022/09/15 03:27:26;;;;;;;6.40;3.05;;;;;;;18.36;72.60;94383.66;5030977;28;20560;-61
2022/09/15 03:29:52;;;;;;;6.65;2.50;;;;;;;18.40;73.01;94379.72;5033685;28;20217;-60
2022/09/15 03:32:18;;;;;;;5.07;2.25;;;;;;;18.43;74.08;94366.53;5033592;28;20194;-59
2022/09/15 03:34:44;;;;;;;6.68;2.60;;;;;;;18.42;74.85;94339.16;5033500;28;20222;-61
2022/09/15 03:37:09;;;;;;;7.18;3.30;;;;;;;18.47;74.43;94354.09;5033726;28;20192;-61
2022/09/15 03:39:34;;;;;;;4.43;2.67;;;;;;;18.51;74.68;94341.63;5033675;28;20221;-61
2022/09/15 03:42:00;;;;;;;5.10;2.63;;;;;;;18.52;74.58;94348.38;5033464;28;20186;-61
2022/09/15 03:44:26;;;;;;;6.78;2.75;;;;;;;18.53;73.71;94362.84;5033627;28;20228;-61
2022/09/15 03:46:51;;;;;;;8.45;3.08;;;;;;;18.43;74.25;94361.38;5033139;28;20678;-61
2022/09/15 03:49:17;;;;;;;5.25;2.78;;;;;;;18.36;74.26;94355.34;5015331;28;20221;-62
2022/09/15 03:51:43;;;;;;;5.85;3.33;;;;;;;18.16;76.09;94308.03;5033080;28;20618;-62
2022/09/15 03:54:09;;;;;;;7.07;2.97;;;;;;;18.20;76.90;94300.78;4998940;28;20226;-62
2022/09/15 03:56:34;;;;;;;6.53;3.28;;;;;;;18.18;76.52;94311.22;5033084;28;20610;-60
2022/09/15 03:59:01;;;;;;;6.32;3.40;;;;;;;18.34;75.86;94315.34;5015256;28;20297;-61
2022/09/15 04:01:28;;;;;;;8.57;3.25;;;;;;;18.23;75.36;94328.69;5015241;28;20566;-61
2022/09/15 04:03:53;;;;;;;5.95;3.05;;;;;;;18.10;77.29;94287.41;5033382;28;20708;-61
2022/09/15 04:06:21;;;;;;;7.30;3.05;;;;;;;18.17;78.03;94289.06;5032898;28;20186;-59
2022/09/15 04:08:47;;;;;;;6.10;2.95;;;;;;;18.08;77.29;94304.81;5032984;28;20254;-61
2022/09/15 04:11:13;;;;;;;6.68;2.88;;;;;;;18.23;75.48;94336.41;5032855;28;20613;-60
2022/09/15 04:13:40;;;;;;;8.23;2.65;;;;;;;18.18;76.55;94320.75;5032871;28;20289;-60
2022/09/15 04:16:12;;;;;;;4.75;3.35;;;;;;;18.04;76.21;94329.31;5032812;28;20214;-61
2022/09/15 04:18:38;;;;;;;14.00;4.15;;;;;;;18.00;76.12;94328.88;5032716;28;20263;-61
2022/09/15 04:21:10;;;;;;;10.93;3.42;;;;;;;17.64;78.99;94268.94;5032670;28;20210;-61
2022/09/15 04:23:36;;;;;;;4.75;3.75;;;;;;;17.78;78.53;94278.38;5032627;28;20210;-61
2022/09/15 04:26:04;;;;;;;8.07;3.58;;;;;;;17.91;77.95;94282.88;5032475;28;20186;-61
2022/09/15 04:28:36;;;;;;;12.85;3.58;;;;;;;18.05;76.47;94311.13;5032490;28;20532;-61
2022/09/15 04:31:08;;;;;;;8.65;3.42;;;;;;;18.05;76.97;94307.75;5032309;28;20664;-62
2022/09/15 04:33:33;;;;;;;6.28;3.53;;;;;;;18.11;76.29;94320.69;5014565;28;20226;-61
2022/09/15 04:36:11;;;;;;;13.25;3.47;;;;;;;18.16;77.63;94299.53;5032277;28;20277;-62
2022/09/15 04:38:36;;;;;;;5.97;3.10;;;;;;;18.23;76.55;94313.25;5031979;28;20276;-62
2022/09/15 04:41:02;;;;;;;4.28;2.70;;;;;;;18.34;75.73;94330.78;5031801;28;20611;-61
2022/09/15 04:43:28;;;;;;;6.72;3.45;;;;;;;18.25;76.83;94316.44;5032010;28;20197;-62
2022/09/15 04:45:55;;;;;;;8.80;3.83;;;;;;;18.35;79.19;94288.63;5032069;28;20570;-61
2022/09/15 04:48:22;;;;;;;7.32;3.63;;;;;;;18.47;75.00;94358.44;5014000;28;20703;-62
2022/09/15 04:50:47;;;;;;;5.32;3.17;;;;;;;18.50;73.79;94376.09;5031265;28;20277;-62
2022/09/15 04:53:13;;;;;;;8.38;3.63;;;;;;;18.44;74.07;94375.06;5014216;28;20591;-61
2022/09/15 04:55:39;;;;;;;11.35;3.97;;;;;;;18.37;74.50;94359.53;5030067;28;20722;-62
2022/09/15 04:58:05;;;;;;;7.53;3.38;;;;;;;18.34;75.46;94344.44;5030494;28;20204;-60
2022/09/15 05:00:34;;;;;;;9.48;3.58;;;;;;;18.41;74.78;94365.91;5031746;28;20204;-61
2022/09/15 05:03:00;;;;;;;5.82;3.40;;;;;;;18.49;75.28;94348.75;5030923;28;20580;-61
2022/09/15 05:05:25;;;;;;;6.35;3.20;;;;;;;18.54;73.06;94385.03;5014204;28;20209;-63
2022/09/15 05:07:51;;;;;;;7.65;3.80;;;;;;;18.68;72.49;94410.75;5030553;28;20244;-62
2022/09/15 05:10:18;;;;;;;11.50;4.30;;;;;;;18.65;73.80;94371.66;5014060;28;20190;-62
2022/09/15 05:12:44;;;;;;;13.23;4.18;;;;;;;18.71;73.72;94379.44;5014183;28;20706;-61
2022/09/15 05:15:10;;;;;;;7.38;4.10;;;;;;;18.69;73.79;94372.88;5032283;28;20308;-61
2022/09/15 05:17:35;;;;;;;7.97;3.88;;;;;;;18.87;73.53;94384.31;5031799;28;20237;-61
2022/09/15 05:20:01;;;;;;;7.32;3.25;;;;;;;18.77;73.06;94383.84;5032171;28;20699;-61
2022/09/15 05:22:27;;;;;;;6.65;3.50;;;;;;;18.86;73.65;94372.44;5031873;28;20190;-62
2022/09/15 05:24:53;;;;;;;8.40;3.28;;;;;;;19.00;72.83;94383.63;5031879;28;20599;-60
2022/09/15 05:27:18;;;;;;;11.68;4.05;;;;;;;19.05;73.30;94373.53;4998281;28;20335;-61
2022/09/15 05:29:44;;;;;;;8.00;3.20;;;;;;;19.15;70.62;94428.13;5032385;28;20293;-61
2022/09/15 05:32:09;;;;;;;6.57;3.28;;;;;;;19.16;70.43;94430.53;5031696;28;20192;-60
2022/09/15 05:34:35;;;;;;;5.63;2.92;;;;;;;19.15;71.22;94413.47;5032309;28;20222;-62
2022/09/15 05:37:01;;;;;;;6.03;3.25;;;;;;;19.20;71.99;94394.88;5014490;28;20586;-63
2022/09/15 05:39:26;;;;;;;7.25;2.80;;;;;;;19.27;72.16;94369.94;5031731;28;20210;-61
2022/09/15 05:41:52;;;;;;;5.63;3.00;;;;;;;19.39;72.47;94368.47;5031609;28;20261;-61
2022/09/15 05:44:17;;;;;;;7.03;3.00;;;;;;;19.49;71.05;94402.44;5031634;28;20202;-63
2022/09/15 05:46:43;;;;;;;5.47;2.97;;;;;;;19.57;70.06;94422.09;5031688;28;20187;-60
2022/09/15 05:49:10;;;;;;;3.80;2.83;;;;;;;19.56;70.56;94411.00;5031535;28;20301;-62
2022/09/15 05:51:42;;;;;;;6.57;2.58;;;;;;;19.56;69.38;94420.50;5030209;28;20201;-62
2022/09/15 05:54:08;;;;;;;5.82;2.83;;;;;;;19.49;69.55;94417.91;5031502;28;20234;-61
2022/09/15 05:56:34;;;;;;;8.98;2.78;;;;;;;19.66;68.67;94439.81;5031263;28;20242;-62
2022/09/15 05:58:59;;;;;;;4.68;2.60;;;;;;;19.55;69.71;94404.25;5031203;28;20769;-61
2022/09/15 06:01:29;;;;;;;8.60;2.55;;;;;;;19.76;68.18;94448.00;5031344;28;20557;-62
2022/09/15 06:03:56;;;;;;;5.30;2.50;;;;;;;19.82;68.07;94447.25;5013712;28;20222;-62
2022/09/15 06:06:23;;;;;;;7.70;2.83;;;;;;;19.78;68.71;94427.97;5030926;28;20243;-61
2022/09/15 06:08:53;;;;;;;6.60;2.97;;;;;;;19.93;67.97;94433.81;5013088;28;20213;-60
2022/09/15 06:11:21;;;;;;;8.82;3.08;;;;;;;19.87;69.59;94403.63;5013538;28;20233;-61
2022/09/15 06:13:47;;;;;;;6.35;2.80;;;;;;;19.99;69.06;94414.97;5030927;28;20210;-62
2022/09/15 06:16:19;;;;;;;8.90;3.28;;;;;;;19.88;70.03;94387.13;5030847;28;20305;-61
2022/09/15 06:18:46;;;;;;;6.32;3.35;;;;;;;19.80;70.70;94394.22;5031147;28;20232;-61
2022/09/15 06:21:17;;;;;;;7.65;3.35;;;;;;;19.80;70.82;94404.56;5030928;28;20189;-64
2022/09/15 06:23:43;;;;;;;8.93;3.00;;;;;;;19.83;70.75;94410.16;5031118;28;20317;-61
2022/09/15 06:26:14;;;;;;;6.50;3.67;;;;;;;20.02;70.72;94406.84;5031224;28;20186;-62
2022/09/15 06:28:45;;;;;;;6.40;3.00;;;;;;;20.18;69.25;94436.66;5030984;28;20250;-63
2022/09/15 06:31:13;;;;;;;8.32;3.78;;;;;;;20.36;70.23;94400.78;5030861;28;20174;-60
2022/09/15 06:33:43;;;;;;;11.68;3.90;;;;;;;20.38;70.81;94374.81;5013025;28;20232;-62
2022/09/15 06:36:13;;;;;;;12.90;3.83;;;;;;;20.20;71.10;94372.00;5012766;28;20692;-63
2022/09/15 06:38:39;;;;;;;8.30;3.05;;;;;;;20.32;70.34;94402.19;5012841;28;20221;-62
2022/09/15 06:41:05;;;;;;;14.82;3.92;;;;;;;20.23;70.00;94402.56;5030534;28;20182;-65
2022/09/15 06:43:32;;;;;;;12.07;4.22;;;;;;;20.55;68.17;94438.00;5030667;28;20198;-62
2022/09/15 06:46:08;;;;;;;8.13;3.42;;;;;;;20.64;67.19;94460.91;5030398;28;20672;-61
2022/09/15 06:48:35;;;;;;;10.05;4.40;;;;;;;20.45;67.93;94447.91;5030329;28;20633;-62
2022/09/15 06:51:02;;;;;;;7.28;4.00;;;;;;;20.52;68.13;94446.16;5030470;28;20189;-62
2022/09/15 06:53:32;;;;;;;7.10;3.70;;;;;;;20.66;67.31;94460.69;5030242;28;20268;-64
2022/09/15 06:56:18;;;;;;;10.88;3.47;;;;;;;20.71;65.87;94497.06;5030251;28;20206;-63
2022/09/15 06:58:44;;;;;;;7.20;3.45;;;;;;;20.74;65.34;94515.56;5028883;28;20305;-63
2022/09/15 07:01:13;;;;;;;8.70;3.47;;;;;;;20.91;65.31;94516.78;5029797;28;20182;-64
2022/09/15 07:03:41;;;;;;;9.48;3.78;;;;;;;20.76;64.51;94548.97;5015090;28;20352;-63
2022/09/15 07:06:08;;;;;;;10.32;3.95;;;;;;;20.98;63.38;94573.69;5031782;28;20225;-64
2022/09/15 07:08:34;;;;;;;9.68;3.72;;;;;;;21.05;64.14;94556.41;5034010;28;20266;-62
2022/09/15 07:10:59;;;;;;;8.65;3.80;;;;;;;21.12;62.92;94584.88;5032356;28;20190;-60
2022/09/15 07:13:25;;;;;;;6.35;4.05;;;;;;;21.36;63.30;94573.97;5034016;28;20696;-64
2022/09/15 07:15:56;;;;;;;8.00;3.58;;;;;;;21.36;63.95;94576.56;5033763;28;20209;-61
2022/09/15 07:18:22;;;;;;;7.53;3.60;;;;;;;21.44;63.26;94595.28;5033768;28;20218;-63
2022/09/15 07:20:49;;;;;;;9.07;4.63;;;;;;;21.71;62.81;94602.03;5034010;28;20183;-63
2022/09/15 07:23:15;;;;;;;8.77;4.28;;;;;;;21.71;64.01;94570.22;5034294;28;20660;-63
2022/09/15 07:25:44;;;;;;;4.90;4.22;;;;;;;21.82;63.96;94571.41;5033565;28;20209;-61
2022/09/15 07:28:18;;;;;;;13.00;5.15;;;;;;;21.98;62.94;94607.28;5033698;28;20190;-63
2022/09/15 07:30:43;;;;;;;8.95;4.43;;;;;;;21.77;62.86;94611.59;5016294;28;20181;-63
2022/09/15 07:33:11;;;;;;;9.68;4.50;;;;;;;21.89;63.18;94609.28;5033634;28;20205;-61
2022/09/15 07:35:41;;;;;;;10.90;4.15;;;;;;;22.25;63.26;94614.81;5033374;28;20224;-63
2022/09/15 07:38:07;;;;;;;15.30;4.40;;;;;;;22.24;63.46;94618.38;5033537;28;20179;-62
2022/09/15 07:40:33;;;;;;;12.05;5.22;;;;;;;22.23;62.93;94632.34;5033293;28;20214;-61
2022/09/15 07:42:59;;;;;;;9.55;4.97;;;;;;;22.52;60.65;94682.94;5033218;28;20186;-62
2022/09/15 07:45:25;;;;;;;15.18;5.72;;;;;;;22.67;60.50;94695.66;5033056;28;20214;-63
2022/09/15 07:47:50;;;;;;;9.82;4.35;;;;;;;22.77;62.32;94633.81;5033522;28;20273;-61
2022/09/15 07:50:15;;;;;;;13.25;5.05;;;;;;;22.67;60.89;94667.97;5015486;28;20213;-61
2022/09/15 07:52:41;;;;;;;11.95;5.50;;;;;;;22.98;60.31;94668.09;5033035;28;20185;-62
2022/09/15 07:55:08;;;;;;;10.88;5.15;;;;;;;23.00;60.42;94660.09;5032910;28;20225;-62
2022/09/15 07:57:33;;;;;;;10.05;4.65;;;;;;;23.03;59.56;94686.41;5033310;28;20182;-62
2022/09/15 07:59:59;;;;;;;12.95;4.35;;;;;;;23.12;59.04;94690.38;5033304;28;20594;-62
2022/09/15 08:02:24;;;;;;;12.30;6.90;;;;;;;23.39;58.25;94711.84;5015329;28;20186;-61
2022/09/15 08:04:50;;;;;;;8.82;5.03;;;;;;;23.26;58.74;94699.69;5033002;28;20719;-62
2022/09/15 08:07:15;;;;;;;9.27;4.82;;;;;;;23.60;56.24;94766.06;5033337;28;20197;-63
2022/09/15 08:09:40;;;;;;;10.82;5.13;;;;;;;23.69;55.01;94777.81;5033227;28;20225;-61
2022/09/15 08:12:06;;;;;;;11.07;4.07;;;;;;;23.58;55.64;94756.88;5032863;28;20182;-61
2022/09/15 08:14:32;;;;;;;12.25;5.13;;;;;;;23.74;55.58;94761.59;5032382;28;20213;-65
2022/09/15 08:17:00;;;;;;;9.85;3.70;;;;;;;23.85;56.40;94747.97;5032870;28;20532;-62
2022/09/15 08:19:32;;;;;;;10.60;4.05;;;;;;;23.71;54.54;94769.81;5033021;28;20210;-64
2022/09/15 08:21:58;;;;;;;11.82;4.30;;;;;;;24.18;54.42;94797.94;5032978;28;20190;-62
2022/09/15 08:24:23;;;;;;;9.55;4.50;;;;;;;24.28;53.02;94816.44;5032846;28;20287;-61
2022/09/15 08:26:50;;;;;;;7.78;4.10;;;;;;;24.32;53.24;94807.22;5032920;28;20182;-61
2022/09/15 08:29:16;;;;;;;8.77;4.68;;;;;;;24.68;52.00;94830.00;5032660;28;20765;-63
2022/09/15 08:31:43;;;;;;;8.73;3.97;;;;;;;24.97;51.87;94808.56;5032511;28;20675;-63
2022/09/15 08:34:14;;;;;;;14.75;5.13;;;;;;;25.23;52.44;94790.06;5032580;28;20302;-61
2022/09/15 08:36:40;;;;;;;10.80;3.67;;;;;;;25.43;52.02;94802.94;5032377;28;20205;-62
2022/09/15 08:39:05;;;;;;;8.05;4.25;;;;;;;25.62;50.71;94838.38;5014676;28;20220;-63
2022/09/15 08:41:41;;;;;;;13.18;4.25;;;;;;;25.76;49.91;94853.63;5032545;28;20261;-62
2022/09/15 08:44:37;;;;;;;13.02;3.92;;;;;;;25.81;49.15;94871.22;5014785;28;20213;-62
2022/09/15 08:47:17;;;;;;;8.45;4.10;;;;;;;26.15;47.60;94894.09;5014679;28;20197;-62
2022/09/15 08:50:20;;;;;;;10.48;4.13;;;;;;;26.57;46.83;94914.00;5014638;28;20565;-61
2022/09/15 08:52:57;;;;;;;6.05;3.97;;;;;;;26.92;46.53;94913.34;5032336;28;20186;-62
2022/09/15 08:55:47;;;;;;;7.57;4.20;;;;;;;27.22;46.62;94895.78;5015079;28;20214;-62
2022/09/15 08:58:17;;;;;;;9.32;3.97;;;;;;;27.38;47.11;94874.25;5014618;28;20714;-62
2022/09/15 09:00:45;;;;;;;10.70;3.47;;;;;;;27.73;44.66;94950.81;5032070;28;20190;-62
2022/09/15 09:03:33;;;;;;;12.70;3.92;;;;;;;27.86;43.50;94981.94;5032291;28;20263;-62
2022/09/15 09:06:05;;;;;;;12.18;4.05;;;;;;;27.98;43.40;94961.81;5014135;28;20182;-62
2022/09/15 09:09:06;;;;;;;6.95;3.75;;;;;;;28.16;44.26;94919.84;5032206;28;20201;-62
2022/09/15 09:11:40;;;;;;;12.52;3.88;;;;;;;28.29;43.00;94971.09;5000040;28;20208;-62
2022/09/15 09:14:27;;;;;;;6.35;3.60;;;;;;;28.30;42.54;94980.53;5029732;28;20213;-62
2022/09/15 09:17:08;;;;;;;8.32;4.20;;;;;;;28.52;42.07;94988.56;5029780;28;20273;-63
2022/09/15 09:19:40;;;;;;;12.80;3.78;;;;;;;28.81;43.82;94909.03;5031759;28;20218;-64
2022/09/15 09:22:12;;;;;;;8.20;4.50;;;;;;;29.08;43.71;94907.41;5031929;28;20273;-61
2022/09/15 09:24:46;;;;;;;9.43;3.95;;;;;;;28.96;42.03;94970.31;5031535;28;20276;-64
2022/09/15 09:27:19;;;;;;;7.60;3.88;;;;;;;28.80;42.00;94954.59;5031602;28;20672;-62
2022/09/15 09:29:52;;;;;;;10.82;4.03;;;;;;;28.99;42.89;94904.38;5032089;28;20218;-63
2022/09/15 09:32:24;;;;;;;10.27;3.78;;;;;;;29.16;41.43;94950.78;5031883;28;20194;-63
2022/09/15 09:34:58;;;;;;;14.43;4.00;;;;;;;29.33;42.04;94920.91;5013744;28;20214;-64
2022/09/15 09:37:24;;;;;;;10.05;3.72;;;;;;;29.49;42.29;94909.63;5031745;28;20742;-63
2022/09/15 09:39:50;;;;;;;10.15;4.50;;;;;;;29.48;41.12;94926.41;5029961;28;20289;-62
2022/09/15 09:42:17;;;;;;;9.63;3.70;;;;;;;29.39;41.01;94930.44;5029480;28;20629;-62
2022/09/15 09:44:44;;;;;;;11.98;4.07;;;;;;;29.48;41.55;94844.34;5031541;28;20567;-62
2022/09/15 09:47:12;;;;;;;7.72;3.67;;;;;;;29.72;40.83;94848.38;5031820;28;20202;-62
2022/09/15 09:49:47;;;;;;;8.73;3.88;;;;;;;30.14;40.99;94836.28;5032115;28;20216;-62
2022/09/15 09:52:31;;;;;;;12.07;4.07;;;;;;;30.58;41.63;94822.06;5031540;28;20569;-62
2022/09/15 09:55:19;;;;;;;8.98;3.22;;;;;;;30.84;40.50;94859.88;5031349;28;20217;-63
2022/09/15 09:57:45;;;;;;;11.18;4.38;;;;;;;31.17;39.01;94830.69;5031503;28;20187;-67
2022/09/15 10:00:30;;;;;;;7.07;3.72;;;;;;;31.55;37.93;94837.53;5031391;28;20217;-63
2022/09/15 10:02:56;;;;;;;10.15;3.40;;;;;;;31.53;37.83;94818.59;5013582;28;20288;-62
2022/09/15 10:05:21;;;;;;;12.75;4.50;;;;;;;32.04;37.14;94822.25;5031352;28;20660;-62
2022/09/15 10:07:47;;;;;;;8.30;3.72;;;;;;;32.06;36.31;94830.66;5031134;28;20666;-61
2022/09/15 10:10:23;;;;;;;11.02;3.90;;;;;;;31.61;37.72;94769.97;5031392;28;20654;-63
2022/09/15 10:12:54;;;;;;;11.02;3.72;;;;;;;31.94;36.64;94785.38;5030964;28;20679;-64
2022/09/15 10:15:23;;;;;;;6.53;3.42;;;;;;;31.85;35.97;94814.00;5030980;28;20226;-63
2022/09/15 10:17:50;;;;;;;8.10;3.60;;;;;;;32.08;35.71;94807.50;5031057;28;20178;-61
2022/09/15 10:20:34;;;;;;;12.20;3.70;;;;;;;32.48;35.94;94807.66;5030950;28;20273;-61
2022/09/15 10:23:22;;;;;;;6.10;2.97;;;;;;;32.84;35.21;94816.34;5030920;28;20193;-63
2022/09/15 10:25:49;;;;;;;7.75;3.60;;;;;;;33.01;34.45;94838.78;5012982;28;20234;-64
2022/09/15 10:28:21;;;;;;;7.93;3.67;;;;;;;32.93;33.44;94849.00;5013163;28;20190;-62
2022/09/15 10:30:58;;;;;;;12.30;4.05;;;;;;;33.17;34.06;94841.41;5031022;28;20271;-61
2022/09/15 10:33:29;;;;;;;11.82;3.55;;;;;;;32.79;33.27;94840.84;5030812;28;20189;-61
2022/09/15 10:36:02;;;;;;;9.57;3.38;;;;;;;32.14;33.87;94817.00;5030786;28;20295;-61
2022/09/15 10:38:42;;;;;;;10.00;3.50;;;;;;;32.28;35.65;94739.16;5033209;28;20652;-61
2022/09/15 10:41:24;;;;;;;13.48;4.03;;;;;;;32.54;35.13;94767.09;5034323;28;20186;-62
2022/09/15 10:44:13;;;;;;;9.02;3.88;;;;;;;32.14;35.27;94751.22;5034423;28;20217;-62
2022/09/15 10:46:54;;;;;;;13.05;3.30;;;;;;;32.22;34.84;94763.88;5016608;28;20193;-61
2022/09/15 10:49:39;;;;;;;9.20;3.40;;;;;;;32.22;34.72;94764.66;5016523;28;20233;-63
2022/09/15 10:52:34;;;;;;;10.70;3.60;;;;;;;31.64;35.28;94740.53;5016249;28;20224;-63
2022/09/15 10:55:24;;;;;;;4.88;3.55;;;;;;;31.32;34.90;94738.81;5034262;28;20275;-62
2022/09/15 10:58:13;;;;;;;9.48;3.30;;;;;;;31.29;35.01;94739.31;5034108;28;20271;-64
2022/09/15 11:01:12;;;;;;;8.40;3.40;;;;;;;31.17;35.71;94701.94;5034225;28;20190;-62
2022/09/15 11:04:18;;;;;;;10.35;3.33;;;;;;;31.19;37.34;94647.28;5000534;28;20244;-63
2022/09/15 11:07:12;;;;;;;9.05;3.08;;;;;;;31.43;37.42;94640.56;5033876;28;20235;-62
2022/09/15 11:09:44;;;;;;;8.55;3.63;;;;;;;31.34;38.61;94601.88;5033744;28;20241;-62
2022/09/15 11:12:35;;;;;;;9.43;3.70;;;;;;;31.08;36.83;94653.56;5034060;28;20233;-63
2022/09/15 11:15:30;;;;;;;11.32;3.60;;;;;;;31.03;36.71;94658.78;5033660;28;20218;-63
2022/09/15 11:18:21;;;;;;;10.43;3.72;;;;;;;30.80;36.17;94674.13;5016615;28;20221;-62
2022/09/15 11:21:20;;;;;;;7.70;3.17;;;;;;;30.63;35.00;94688.22;5015872;28;20240;-62
2022/09/15 11:24:07;;;;;;;8.13;2.95;;;;;;;30.31;35.59;94678.78;5006869;28;20241;-63
2022/09/15 11:26:39;;;;;;;13.13;4.72;;;;;;;30.19;35.95;94662.41;5015752;28;20225;-63
2022/09/15 11:29:13;;;;;;;11.20;4.43;;;;;;;30.12;36.63;94612.75;5015885;28;20280;-62
2022/09/15 11:31:42;;;;;;;10.07;3.40;;;;;;;30.16;37.23;94610.44;5015643;28;20206;-64
2022/09/15 11:34:16;;;;;;;12.15;3.53;;;;;;;30.13;37.44;94592.56;5015790;28;20645;-62
2022/09/15 11:36:51;;;;;;;11.63;3.08;;;;;;;30.47;36.13;94643.75;5033583;28;20242;-62
2022/09/15 11:39:28;;;;;;;9.93;3.58;;;;;;;31.10;35.84;94653.31;5033606;28;20213;-63
2022/09/15 11:42:07;;;;;;;10.10;3.30;;;;;;;31.80;34.02;94715.84;5033317;28;20177;-62
2022/09/15 11:44:40;;;;;;;10.38;3.90;;;;;;;32.52;32.94;94750.78;5033224;28;20241;-63
2022/09/15 11:47:24;;;;;;;9.90;3.10;;;;;;;33.21;31.95;94772.06;5033216;28;20248;-63
2022/09/15 11:50:17;;;;;;;9.50;3.03;;;;;;;33.75;29.43;94853.97;5031196;28;20260;-63
2022/09/15 11:53:07;;;;;;;9.27;2.80;;;;;;;34.35;30.02;94815.97;5030793;28;20182;-63